sensor_id;sensor_type;location;lat;lon;timestamp;temperature;humidity
29353;DHT22;16344;50.364;8.944;2023-05-16T00:00:58;13.80;1.00
29353;DHT22;16344;50.364;8.944;2023-05-16T00:03:26;13.80;1.00
29353;DHT22;16344;50.364;8.944;2023-05-16T00:05:52;13.90;1.00
29353;DHT22;16344;50.364;8.944;2023-05-16T00:08:17;13.80;1.00
29353;DHT22;16344;50.364;8.944;2023-05-16T00:10:43;13.80;1.00
29353;DHT22;16344;50.364;8.944;2023-05-16T00:13:08;13.80;1.00
29353;DHT22;16344;50.364;8.944;2023-05-16T00:15:34;13.80;1.00
29353;DHT22;16344;50.364;8.944;2023-05-16T00:18:00;13.80;1.00
29353;DHT22;16344;50.364;8.944;2023-05-16T00:20:26;13.70;1.00
29353;DHT22;16344;50.364;8.944;2023-05-16T00:22:53;13.70;1.00
29353;DHT22;16344;50.364;8.944;2023-05-16T00:25:19;13.70;1.00
29353;DHT22;16344;50.364;8.944;2023-05-16T00:27:44;13.70;1.00
29353;DHT22;16344;50.364;8.944;2023-05-16T00:30:10;13.70;1.00
29353;DHT22;16344;50.364;8.944;2023-05-16T00:32:36;13.70;1.00
29353;DHT22;16344;50.364;8.944;2023-05-16T00:35:02;13.60;1.00
29353;DHT22;16344;50.364;8.944;2023-05-16T00:37:27;13.50;1.00
29353;DHT22;16344;50.364;8.944;2023-05-16T00:39:53;13.50;1.00
29353;DHT22;16344;50.364;8.944;2023-05-16T00:42:19;13.40;1.00
29353;DHT22;16344;50.364;8.944;2023-05-16T00:44:46;13.40;1.00
29353;DHT22;16344;50.364;8.944;2023-05-16T00:47:12;13.40;1.00
29353;DHT22;16344;50.364;8.944;2023-05-16T00:49:38;13.40;1.00
29353;DHT22;16344;50.364;8.944;2023-05-16T00:52:03;13.40;1.00
29353;DHT22;16344;50.364;8.944;2023-05-16T00:54:30;13.40;1.00
29353;DHT22;16344;50.364;8.944;2023-05-16T00:56:56;13.40;1.00
29353;DHT22;16344;50.364;8.944;2023-05-16T00:59:25;13.30;1.00
29353;DHT22;16344;50.364;8.944;2023-05-16T01:01:51;13.30;1.00
29353;DHT22;16344;50.364;8.944;2023-05-16T01:04:17;13.30;1.00
29353;DHT22;16344;50.364;8.944;2023-05-16T01:06:46;13.30;1.00
29353;DHT22;16344;50.364;8.944;2023-05-16T01:09:12;13.30;1.00
29353;DHT22;16344;50.364;8.944;2023-05-16T01:12:01;13.30;1.00
29353;DHT22;16344;50.364;8.944;2023-05-16T01:17:37;13.30;1.00
29353;DHT22;16344;50.364;8.944;2023-05-16T01:23:17;13.30;1.00
29353;DHT22;16344;50.364;8.944;2023-05-16T01:28:10;13.20;1.00
29353;DHT22;16344;50.364;8.944;2023-05-16T01:30:39;13.20;1.00
29353;DHT22;16344;50.364;8.944;2023-05-16T01:33:05;13.20;1.00
29353;DHT22;16344;50.364;8.944;2023-05-16T01:35:31;13.10;1.00
29353;DHT22;16344;50.364;8.944;2023-05-16T01:43:14;13.10;1.00
29353;DHT22;16344;50.364;8.944;2023-05-16T01:45:54;13.10;1.00
29353;DHT22;16344;50.364;8.944;2023-05-16T01:48:31;13.20;1.00
29353;DHT22;16344;50.364;8.944;2023-05-16T01:50:59;13.10;1.00
29353;DHT22;16344;50.364;8.944;2023-05-16T01:53:30;13.00;1.00
29353;DHT22;16344;50.364;8.944;2023-05-16T01:55:59;12.90;1.00
29353;DHT22;16344;50.364;8.944;2023-05-16T01:58:29;12.90;1.00
29353;DHT22;16344;50.364;8.944;2023-05-16T02:01:02;12.80;1.00
29353;DHT22;16344;50.364;8.944;2023-05-16T02:03:29;12.80;1.00
29353;DHT22;16344;50.364;8.944;2023-05-16T02:05:56;12.80;1.00
29353;DHT22;16344;50.364;8.944;2023-05-16T02:08:22;12.90;1.00
29353;DHT22;16344;50.364;8.944;2023-05-16T02:10:47;13.00;1.00
29353;DHT22;16344;50.364;8.944;2023-05-16T02:13:13;13.00;1.00
29353;DHT22;16344;50.364;8.944;2023-05-16T02:15:38;13.00;1.00
29353;DHT22;16344;50.364;8.944;2023-05-16T02:18:04;13.00;1.00
29353;DHT22;16344;50.364;8.944;2023-05-16T02:20:30;13.00;1.00
29353;DHT22;16344;50.364;8.944;2023-05-16T02:22:55;12.90;1.00
29353;DHT22;16344;50.364;8.944;2023-05-16T02:25:21;12.90;1.00
29353;DHT22;16344;50.364;8.944;2023-05-16T02:27:46;13.00;1.00
29353;DHT22;16344;50.364;8.944;2023-05-16T02:30:12;13.00;1.00
29353;DHT22;16344;50.364;8.944;2023-05-16T02:32:38;13.00;1.00
29353;DHT22;16344;50.364;8.944;2023-05-16T02:35:05;13.00;1.00
29353;DHT22;16344;50.364;8.944;2023-05-16T02:37:31;12.90;1.00
29353;DHT22;16344;50.364;8.944;2023-05-16T02:39:56;12.90;1.00
29353;DHT22;16344;50.364;8.944;2023-05-16T02:42:22;12.90;1.00
29353;DHT22;16344;50.364;8.944;2023-05-16T02:44:47;13.00;1.00
29353;DHT22;16344;50.364;8.944;2023-05-16T02:47:13;13.00;1.00
29353;DHT22;16344;50.364;8.944;2023-05-16T02:49:39;12.90;1.00
29353;DHT22;16344;50.364;8.944;2023-05-16T02:52:05;13.00;1.00
29353;DHT22;16344;50.364;8.944;2023-05-16T02:54:30;13.00;1.00
29353;DHT22;16344;50.364;8.944;2023-05-16T02:56:56;12.90;1.00
29353;DHT22;16344;50.364;8.944;2023-05-16T02:59:21;13.10;1.00
29353;DHT22;16344;50.364;8.944;2023-05-16T03:01:47;13.10;1.00
29353;DHT22;16344;50.364;8.944;2023-05-16T03:04:12;13.10;1.00
29353;DHT22;16344;50.364;8.944;2023-05-16T03:06:38;13.10;1.00
29353;DHT22;16344;50.364;8.944;2023-05-16T03:09:04;13.10;1.00
29353;DHT22;16344;50.364;8.944;2023-05-16T03:11:29;13.10;1.00
29353;DHT22;16344;50.364;8.944;2023-05-16T03:13:55;13.30;1.00
29353;DHT22;16344;50.364;8.944;2023-05-16T03:16:20;13.30;1.00
29353;DHT22;16344;50.364;8.944;2023-05-16T03:18:46;13.30;1.00
29353;DHT22;16344;50.364;8.944;2023-05-16T03:21:11;13.30;1.00
29353;DHT22;16344;50.364;8.944;2023-05-16T03:23:37;13.30;1.00
29353;DHT22;16344;50.364;8.944;2023-05-16T03:26:03;13.20;1.00
29353;DHT22;16344;50.364;8.944;2023-05-16T03:28:28;13.30;1.00
29353;DHT22;16344;50.364;8.944;2023-05-16T03:30:54;13.30;1.00
29353;DHT22;16344;50.364;8.944;2023-05-16T03:33:20;13.50;1.00
29353;DHT22;16344;50.364;8.944;2023-05-16T03:35:45;13.50;1.00
29353;DHT22;16344;50.364;8.944;2023-05-16T03:38:11;13.50;1.00
29353;DHT22;16344;50.364;8.944;2023-05-16T03:40:37;13.60;1.00
29353;DHT22;16344;50.364;8.944;2023-05-16T03:43:02;13.60;1.00
29353;DHT22;16344;50.364;8.944;2023-05-16T03:45:29;13.60;1.00
29353;DHT22;16344;50.364;8.944;2023-05-16T03:47:55;13.70;1.00
29353;DHT22;16344;50.364;8.944;2023-05-16T03:50:21;13.70;1.00
29353;DHT22;16344;50.364;8.944;2023-05-16T03:52:46;13.80;1.00
29353;DHT22;16344;50.364;8.944;2023-05-16T03:55:12;13.70;1.00
29353;DHT22;16344;50.364;8.944;2023-05-16T03:57:39;13.70;1.00
29353;DHT22;16344;50.364;8.944;2023-05-16T04:00:07;13.70;1.00
29353;DHT22;16344;50.364;8.944;2023-05-16T04:02:33;13.70;1.00
29353;DHT22;16344;50.364;8.944;2023-05-16T04:04:58;13.80;1.00
29353;DHT22;16344;50.364;8.944;2023-05-16T04:07:24;13.70;1.00
29353;DHT22;16344;50.364;8.944;2023-05-16T04:09:50;13.70;1.00
29353;DHT22;16344;50.364;8.944;2023-05-16T04:12:16;13.50;1.00
29353;DHT22;16344;50.364;8.944;2023-05-16T04:14:41;13.50;1.00
29353;DHT22;16344;50.364;8.944;2023-05-16T04:17:07;13.50;1.00
29353;DHT22;16344;50.364;8.944;2023-05-16T04:19:32;13.60;1.00
29353;DHT22;16344;50.364;8.944;2023-05-16T04:21:58;13.70;1.00
29353;DHT22;16344;50.364;8.944;2023-05-16T04:24:23;13.70;1.00
29353;DHT22;16344;50.364;8.944;2023-05-16T04:26:51;13.70;1.00
29353;DHT22;16344;50.364;8.944;2023-05-16T04:29:16;13.70;1.00
29353;DHT22;16344;50.364;8.944;2023-05-16T04:31:42;13.70;1.00
29353;DHT22;16344;50.364;8.944;2023-05-16T04:34:07;13.60;1.00
29353;DHT22;16344;50.364;8.944;2023-05-16T04:36:33;13.70;1.00
29353;DHT22;16344;50.364;8.944;2023-05-16T04:39:00;13.80;1.00
29353;DHT22;16344;50.364;8.944;2023-05-16T04:41:25;13.60;1.00
29353;DHT22;16344;50.364;8.944;2023-05-16T04:43:51;13.60;1.00
29353;DHT22;16344;50.364;8.944;2023-05-16T04:46:17;13.60;1.00
29353;DHT22;16344;50.364;8.944;2023-05-16T04:48:43;13.70;1.00
29353;DHT22;16344;50.364;8.944;2023-05-16T04:51:09;13.70;1.00
29353;DHT22;16344;50.364;8.944;2023-05-16T04:53:34;13.70;1.00
29353;DHT22;16344;50.364;8.944;2023-05-16T04:56:00;13.70;1.00
29353;DHT22;16344;50.364;8.944;2023-05-16T04:58:25;13.70;1.00
29353;DHT22;16344;50.364;8.944;2023-05-16T05:00:51;13.70;1.00
29353;DHT22;16344;50.364;8.944;2023-05-16T05:03:17;13.70;1.00
29353;DHT22;16344;50.364;8.944;2023-05-16T05:05:43;13.70;1.00
29353;DHT22;16344;50.364;8.944;2023-05-16T05:08:09;13.60;1.00
29353;DHT22;16344;50.364;8.944;2023-05-16T05:10:35;13.70;1.00
29353;DHT22;16344;50.364;8.944;2023-05-16T05:13:00;13.70;1.00
29353;DHT22;16344;50.364;8.944;2023-05-16T05:15:26;13.70;1.00
29353;DHT22;16344;50.364;8.944;2023-05-16T05:17:52;13.50;1.00
29353;DHT22;16344;50.364;8.944;2023-05-16T05:20:17;13.50;1.00
29353;DHT22;16344;50.364;8.944;2023-05-16T05:22:43;13.50;5.50
29353;DHT22;16344;50.364;8.944;2023-05-16T05:25:09;13.50;2.70
29353;DHT22;16344;50.364;8.944;2023-05-16T05:27:35;13.50;5.20
29353;DHT22;16344;50.364;8.944;2023-05-16T05:30:01;13.20;4.50
29353;DHT22;16344;50.364;8.944;2023-05-16T05:32:26;13.10;7.30
29353;DHT22;16344;50.364;8.944;2023-05-16T05:34:52;13.00;7.80
29353;DHT22;16344;50.364;8.944;2023-05-16T05:37:17;12.80;17.10
29353;DHT22;16344;50.364;8.944;2023-05-16T05:39:43;12.70;16.40
29353;DHT22;16344;50.364;8.944;2023-05-16T05:42:09;12.60;19.60
29353;DHT22;16344;50.364;8.944;2023-05-16T05:44:36;12.50;23.20
29353;DHT22;16344;50.364;8.944;2023-05-16T05:47:02;12.50;22.60
29353;DHT22;16344;50.364;8.944;2023-05-16T05:49:28;12.50;16.50
29353;DHT22;16344;50.364;8.944;2023-05-16T05:51:54;12.40;3.80
29353;DHT22;16344;50.364;8.944;2023-05-16T05:54:20;12.40;8.40
29353;DHT22;16344;50.364;8.944;2023-05-16T05:56:46;12.30;7.80
29353;DHT22;16344;50.364;8.944;2023-05-16T05:59:11;12.30;7.20
29353;DHT22;16344;50.364;8.944;2023-05-16T06:01:37;12.30;13.50
29353;DHT22;16344;50.364;8.944;2023-05-16T06:04:03;12.30;15.20
29353;DHT22;16344;50.364;8.944;2023-05-16T06:06:29;12.20;15.50
29353;DHT22;16344;50.364;8.944;2023-05-16T06:08:55;12.20;17.20
29353;DHT22;16344;50.364;8.944;2023-05-16T06:11:20;12.20;19.60
29353;DHT22;16344;50.364;8.944;2023-05-16T06:13:46;12.20;12.10
29353;DHT22;16344;50.364;8.944;2023-05-16T06:16:12;12.10;22.00
29353;DHT22;16344;50.364;8.944;2023-05-16T06:18:38;12.20;14.10
29353;DHT22;16344;50.364;8.944;2023-05-16T06:21:04;12.10;19.70
29353;DHT22;16344;50.364;8.944;2023-05-16T06:23:31;12.00;19.90
29353;DHT22;16344;50.364;8.944;2023-05-16T06:25:56;12.10;21.10
29353;DHT22;16344;50.364;8.944;2023-05-16T06:28:22;12.10;20.40
29353;DHT22;16344;50.364;8.944;2023-05-16T06:30:48;12.20;25.30
29353;DHT22;16344;50.364;8.944;2023-05-16T06:33:16;12.30;19.20
29353;DHT22;16344;50.364;8.944;2023-05-16T06:35:42;12.20;17.90
29353;DHT22;16344;50.364;8.944;2023-05-16T06:38:07;12.30;23.20
29353;DHT22;16344;50.364;8.944;2023-05-16T06:40:33;12.20;22.70
29353;DHT22;16344;50.364;8.944;2023-05-16T06:42:59;12.30;15.80
29353;DHT22;16344;50.364;8.944;2023-05-16T06:45:24;12.30;15.50
29353;DHT22;16344;50.364;8.944;2023-05-16T06:47:50;12.20;19.90
29353;DHT22;16344;50.364;8.944;2023-05-16T06:50:15;12.20;21.30
29353;DHT22;16344;50.364;8.944;2023-05-16T06:52:41;12.20;24.70
29353;DHT22;16344;50.364;8.944;2023-05-16T06:55:07;12.10;26.70
29353;DHT22;16344;50.364;8.944;2023-05-16T06:57:32;12.10;27.90
29353;DHT22;16344;50.364;8.944;2023-05-16T06:59:58;12.10;31.80
29353;DHT22;16344;50.364;8.944;2023-05-16T07:02:23;12.10;32.10
29353;DHT22;16344;50.364;8.944;2023-05-16T07:04:49;12.20;25.90
29353;DHT22;16344;50.364;8.944;2023-05-16T07:07:15;12.30;26.20
29353;DHT22;16344;50.364;8.944;2023-05-16T07:09:40;12.50;23.60
29353;DHT22;16344;50.364;8.944;2023-05-16T07:12:06;12.50;17.90
29353;DHT22;16344;50.364;8.944;2023-05-16T07:14:32;12.60;14.60
29353;DHT22;16344;50.364;8.944;2023-05-16T07:16:57;12.60;7.40
29353;DHT22;16344;50.364;8.944;2023-05-16T07:19:23;12.60;6.80
29353;DHT22;16344;50.364;8.944;2023-05-16T07:21:48;12.50;1.00
29353;DHT22;16344;50.364;8.944;2023-05-16T07:24:14;12.40;2.80
29353;DHT22;16344;50.364;8.944;2023-05-16T07:26:39;12.30;1.00
29353;DHT22;16344;50.364;8.944;2023-05-16T07:29:05;12.20;1.00
29353;DHT22;16344;50.364;8.944;2023-05-16T07:31:30;12.10;1.00
29353;DHT22;16344;50.364;8.944;2023-05-16T07:33:56;12.20;1.00
29353;DHT22;16344;50.364;8.944;2023-05-16T07:36:21;12.10;1.00
29353;DHT22;16344;50.364;8.944;2023-05-16T07:38:47;12.20;1.00
29353;DHT22;16344;50.364;8.944;2023-05-16T07:41:12;12.30;1.00
29353;DHT22;16344;50.364;8.944;2023-05-16T07:43:38;12.20;1.00
29353;DHT22;16344;50.364;8.944;2023-05-16T07:46:04;12.10;1.00
29353;DHT22;16344;50.364;8.944;2023-05-16T07:48:29;12.00;1.00
29353;DHT22;16344;50.364;8.944;2023-05-16T07:50:55;12.00;1.00
29353;DHT22;16344;50.364;8.944;2023-05-16T07:53:21;12.10;1.00
29353;DHT22;16344;50.364;8.944;2023-05-16T07:55:47;12.10;1.00
29353;DHT22;16344;50.364;8.944;2023-05-16T07:58:13;12.10;1.00
29353;DHT22;16344;50.364;8.944;2023-05-16T08:00:39;12.10;1.00
29353;DHT22;16344;50.364;8.944;2023-05-16T08:03:04;12.30;1.00
29353;DHT22;16344;50.364;8.944;2023-05-16T08:05:31;12.20;1.00
29353;DHT22;16344;50.364;8.944;2023-05-16T08:07:56;12.10;1.00
29353;DHT22;16344;50.364;8.944;2023-05-16T08:10:22;12.00;1.00
29353;DHT22;16344;50.364;8.944;2023-05-16T08:12:48;12.10;1.00
29353;DHT22;16344;50.364;8.944;2023-05-16T08:15:14;12.10;1.00
29353;DHT22;16344;50.364;8.944;2023-05-16T08:17:39;12.10;1.00
29353;DHT22;16344;50.364;8.944;2023-05-16T08:20:05;12.30;1.00
29353;DHT22;16344;50.364;8.944;2023-05-16T08:22:31;12.60;1.00
29353;DHT22;16344;50.364;8.944;2023-05-16T08:24:57;12.60;1.00
29353;DHT22;16344;50.364;8.944;2023-05-16T08:27:27;12.50;1.00
29353;DHT22;16344;50.364;8.944;2023-05-16T08:29:53;12.40;1.00
29353;DHT22;16344;50.364;8.944;2023-05-16T08:32:20;12.30;1.00
29353;DHT22;16344;50.364;8.944;2023-05-16T08:34:46;12.20;1.00
29353;DHT22;16344;50.364;8.944;2023-05-16T08:37:11;12.20;1.00
29353;DHT22;16344;50.364;8.944;2023-05-16T08:39:40;12.30;1.00
29353;DHT22;16344;50.364;8.944;2023-05-16T08:42:05;12.30;1.00
29353;DHT22;16344;50.364;8.944;2023-05-16T08:44:33;12.20;1.00
29353;DHT22;16344;50.364;8.944;2023-05-16T08:47:05;12.20;1.00
29353;DHT22;16344;50.364;8.944;2023-05-16T08:49:31;12.40;1.00
29353;DHT22;16344;50.364;8.944;2023-05-16T08:51:59;12.40;1.00
29353;DHT22;16344;50.364;8.944;2023-05-16T08:54:26;12.40;1.00
29353;DHT22;16344;50.364;8.944;2023-05-16T08:56:52;12.50;1.00
29353;DHT22;16344;50.364;8.944;2023-05-16T08:59:18;12.60;1.00
29353;DHT22;16344;50.364;8.944;2023-05-16T09:01:45;12.70;1.00
29353;DHT22;16344;50.364;8.944;2023-05-16T09:04:11;12.90;1.00
29353;DHT22;16344;50.364;8.944;2023-05-16T09:06:36;12.90;1.00
29353;DHT22;16344;50.364;8.944;2023-05-16T09:09:02;13.00;1.00
29353;DHT22;16344;50.364;8.944;2023-05-16T09:11:29;13.10;1.00
29353;DHT22;16344;50.364;8.944;2023-05-16T09:13:54;13.20;1.00
29353;DHT22;16344;50.364;8.944;2023-05-16T09:16:20;13.20;1.00
29353;DHT22;16344;50.364;8.944;2023-05-16T09:18:53;13.20;1.00
29353;DHT22;16344;50.364;8.944;2023-05-16T09:21:21;13.20;1.00
29353;DHT22;16344;50.364;8.944;2023-05-16T09:23:49;13.20;99.90
29353;DHT22;16344;50.364;8.944;2023-05-16T09:26:15;13.30;99.90
29353;DHT22;16344;50.364;8.944;2023-05-16T09:28:41;13.30;99.90
29353;DHT22;16344;50.364;8.944;2023-05-16T09:31:25;13.40;99.90
29353;DHT22;16344;50.364;8.944;2023-05-16T09:33:51;13.70;99.90
29353;DHT22;16344;50.364;8.944;2023-05-16T09:36:17;13.80;99.90
29353;DHT22;16344;50.364;8.944;2023-05-16T09:38:43;14.00;99.90
29353;DHT22;16344;50.364;8.944;2023-05-16T09:41:09;14.20;99.90
29353;DHT22;16344;50.364;8.944;2023-05-16T09:43:37;14.30;99.90
29353;DHT22;16344;50.364;8.944;2023-05-16T09:46:03;14.40;99.90
29353;DHT22;16344;50.364;8.944;2023-05-16T09:48:29;14.20;99.90
29353;DHT22;16344;50.364;8.944;2023-05-16T09:50:56;14.20;99.90
29353;DHT22;16344;50.364;8.944;2023-05-16T09:53:30;14.50;99.90
29353;DHT22;16344;50.364;8.944;2023-05-16T09:56:07;14.90;99.90
29353;DHT22;16344;50.364;8.944;2023-05-16T09:58:37;15.30;52.00
29353;DHT22;16344;50.364;8.944;2023-05-16T10:01:04;15.10;9.30
29353;DHT22;16344;50.364;8.944;2023-05-16T10:03:31;14.90;1.00
29353;DHT22;16344;50.364;8.944;2023-05-16T10:05:57;14.70;1.00
29353;DHT22;16344;50.364;8.944;2023-05-16T10:08:25;14.50;1.00
29353;DHT22;16344;50.364;8.944;2023-05-16T10:10:55;14.40;1.00
29353;DHT22;16344;50.364;8.944;2023-05-16T10:13:22;14.30;1.00
29353;DHT22;16344;50.364;8.944;2023-05-16T10:15:49;14.30;1.00
29353;DHT22;16344;50.364;8.944;2023-05-16T10:18:17;14.40;1.00
29353;DHT22;16344;50.364;8.944;2023-05-16T10:20:46;14.60;1.00
29353;DHT22;16344;50.364;8.944;2023-05-16T10:23:16;14.70;1.00
29353;DHT22;16344;50.364;8.944;2023-05-16T10:25:44;14.80;1.00
29353;DHT22;16344;50.364;8.944;2023-05-16T10:28:10;15.00;1.00
29353;DHT22;16344;50.364;8.944;2023-05-16T10:30:40;15.20;1.00
29353;DHT22;16344;50.364;8.944;2023-05-16T10:33:06;15.20;1.00
29353;DHT22;16344;50.364;8.944;2023-05-16T10:35:33;15.40;1.00
29353;DHT22;16344;50.364;8.944;2023-05-16T10:37:59;15.70;1.00
29353;DHT22;16344;50.364;8.944;2023-05-16T10:40:26;15.70;1.00
29353;DHT22;16344;50.364;8.944;2023-05-16T10:43:01;15.60;1.00
29353;DHT22;16344;50.364;8.944;2023-05-16T10:45:27;15.60;1.00
29353;DHT22;16344;50.364;8.944;2023-05-16T10:47:57;15.70;1.00
29353;DHT22;16344;50.364;8.944;2023-05-16T10:53:28;16.00;1.00
29353;DHT22;16344;50.364;8.944;2023-05-16T11:01:36;15.80;1.00
29353;DHT22;16344;50.364;8.944;2023-05-16T11:04:04;15.80;1.00
29353;DHT22;16344;50.364;8.944;2023-05-16T11:12:01;15.80;1.00
29353;DHT22;16344;50.364;8.944;2023-05-16T11:19:42;15.70;1.00
29353;DHT22;16344;50.364;8.944;2023-05-16T11:24:37;15.70;1.00
29353;DHT22;16344;50.364;8.944;2023-05-16T11:27:04;15.60;1.00
29353;DHT22;16344;50.364;8.944;2023-05-16T11:29:34;15.70;1.00
29353;DHT22;16344;50.364;8.944;2023-05-16T11:32:01;15.80;1.00
29353;DHT22;16344;50.364;8.944;2023-05-16T11:34:28;15.90;1.00
29353;DHT22;16344;50.364;8.944;2023-05-16T11:36:54;16.10;1.00
29353;DHT22;16344;50.364;8.944;2023-05-16T11:39:20;16.00;1.00
29353;DHT22;16344;50.364;8.944;2023-05-16T11:41:49;16.20;1.00
29353;DHT22;16344;50.364;8.944;2023-05-16T11:44:14;16.40;1.00
29353;DHT22;16344;50.364;8.944;2023-05-16T11:46:40;16.70;1.00
29353;DHT22;16344;50.364;8.944;2023-05-16T11:49:06;16.70;1.00
29353;DHT22;16344;50.364;8.944;2023-05-16T11:51:36;16.90;1.00
29353;DHT22;16344;50.364;8.944;2023-05-16T11:54:02;17.30;1.00
29353;DHT22;16344;50.364;8.944;2023-05-16T11:56:30;17.30;1.00
29353;DHT22;16344;50.364;8.944;2023-05-16T11:58:57;17.20;1.00
29353;DHT22;16344;50.364;8.944;2023-05-16T12:01:23;17.10;1.00
29353;DHT22;16344;50.364;8.944;2023-05-16T12:03:54;17.20;1.00
29353;DHT22;16344;50.364;8.944;2023-05-16T12:06:21;17.50;1.00
29353;DHT22;16344;50.364;8.944;2023-05-16T12:08:50;17.70;1.00
29353;DHT22;16344;50.364;8.944;2023-05-16T12:11:16;17.80;1.00
29353;DHT22;16344;50.364;8.944;2023-05-16T12:13:42;18.00;1.00
29353;DHT22;16344;50.364;8.944;2023-05-16T12:16:08;18.10;1.00
29353;DHT22;16344;50.364;8.944;2023-05-16T12:18:35;18.00;1.00
29353;DHT22;16344;50.364;8.944;2023-05-16T12:21:03;18.10;1.00
29353;DHT22;16344;50.364;8.944;2023-05-16T12:23:29;18.10;1.00
29353;DHT22;16344;50.364;8.944;2023-05-16T12:25:56;18.10;1.00
29353;DHT22;16344;50.364;8.944;2023-05-16T12:28:22;18.10;1.00
29353;DHT22;16344;50.364;8.944;2023-05-16T12:30:47;18.20;1.00
29353;DHT22;16344;50.364;8.944;2023-05-16T12:33:14;17.90;1.00
29353;DHT22;16344;50.364;8.944;2023-05-16T12:35:44;17.70;1.00
29353;DHT22;16344;50.364;8.944;2023-05-16T12:38:12;17.80;1.00
29353;DHT22;16344;50.364;8.944;2023-05-16T12:40:40;18.00;1.00
29353;DHT22;16344;50.364;8.944;2023-05-16T12:43:21;18.00;1.00
29353;DHT22;16344;50.364;8.944;2023-05-16T12:45:54;18.20;1.00
29353;DHT22;16344;50.364;8.944;2023-05-16T12:48:20;18.40;1.00
29353;DHT22;16344;50.364;8.944;2023-05-16T12:50:46;18.40;1.00
29353;DHT22;16344;50.364;8.944;2023-05-16T12:53:14;18.10;1.00
29353;DHT22;16344;50.364;8.944;2023-05-16T12:55:41;18.10;1.00
29353;DHT22;16344;50.364;8.944;2023-05-16T12:58:07;18.20;1.00
29353;DHT22;16344;50.364;8.944;2023-05-16T13:00:33;18.10;1.00
29353;DHT22;16344;50.364;8.944;2023-05-16T13:02:59;18.20;1.00
29353;DHT22;16344;50.364;8.944;2023-05-16T13:05:24;18.20;1.00
29353;DHT22;16344;50.364;8.944;2023-05-16T13:07:50;18.30;1.00
29353;DHT22;16344;50.364;8.944;2023-05-16T13:10:16;18.30;1.00
29353;DHT22;16344;50.364;8.944;2023-05-16T13:12:42;17.90;1.00
29353;DHT22;16344;50.364;8.944;2023-05-16T13:15:09;17.80;1.00
29353;DHT22;16344;50.364;8.944;2023-05-16T13:17:35;17.90;1.00
29353;DHT22;16344;50.364;8.944;2023-05-16T13:20:02;18.10;1.00
29353;DHT22;16344;50.364;8.944;2023-05-16T13:22:31;18.20;1.00
29353;DHT22;16344;50.364;8.944;2023-05-16T13:24:57;18.30;1.00
29353;DHT22;16344;50.364;8.944;2023-05-16T13:27:22;18.30;1.00
29353;DHT22;16344;50.364;8.944;2023-05-16T13:29:48;18.30;1.00
29353;DHT22;16344;50.364;8.944;2023-05-16T13:32:13;18.10;1.00
29353;DHT22;16344;50.364;8.944;2023-05-16T13:34:45;18.20;1.00
29353;DHT22;16344;50.364;8.944;2023-05-16T13:37:10;18.30;1.00
29353;DHT22;16344;50.364;8.944;2023-05-16T13:39:36;18.40;1.00
29353;DHT22;16344;50.364;8.944;2023-05-16T13:42:01;18.40;1.00
29353;DHT22;16344;50.364;8.944;2023-05-16T13:44:28;18.30;1.00
29353;DHT22;16344;50.364;8.944;2023-05-16T13:46:53;18.30;1.00
29353;DHT22;16344;50.364;8.944;2023-05-16T13:49:19;18.00;1.00
29353;DHT22;16344;50.364;8.944;2023-05-16T13:51:45;17.70;1.00
29353;DHT22;16344;50.364;8.944;2023-05-16T13:54:11;17.60;1.00
29353;DHT22;16344;50.364;8.944;2023-05-16T13:56:37;17.80;1.00
29353;DHT22;16344;50.364;8.944;2023-05-16T13:59:02;17.90;1.00
29353;DHT22;16344;50.364;8.944;2023-05-16T14:01:28;17.80;1.00
29353;DHT22;16344;50.364;8.944;2023-05-16T14:03:53;17.60;1.00
29353;DHT22;16344;50.364;8.944;2023-05-16T14:06:19;17.60;1.00
29353;DHT22;16344;50.364;8.944;2023-05-16T14:08:45;17.80;1.00
29353;DHT22;16344;50.364;8.944;2023-05-16T14:11:10;17.80;1.00
29353;DHT22;16344;50.364;8.944;2023-05-16T14:13:36;18.10;1.00
29353;DHT22;16344;50.364;8.944;2023-05-16T14:16:03;18.40;1.00
29353;DHT22;16344;50.364;8.944;2023-05-16T14:18:28;18.40;99.90
29353;DHT22;16344;50.364;8.944;2023-05-16T14:20:54;18.00;99.90
29353;DHT22;16344;50.364;8.944;2023-05-16T14:23:20;17.50;1.00
29353;DHT22;16344;50.364;8.944;2023-05-16T14:25:46;17.10;1.00
29353;DHT22;16344;50.364;8.944;2023-05-16T14:28:11;17.20;1.00
29353;DHT22;16344;50.364;8.944;2023-05-16T14:30:37;17.30;1.00
29353;DHT22;16344;50.364;8.944;2023-05-16T14:33:02;17.40;1.00
29353;DHT22;16344;50.364;8.944;2023-05-16T14:35:28;17.40;99.90
29353;DHT22;16344;50.364;8.944;2023-05-16T14:37:54;17.40;99.90
29353;DHT22;16344;50.364;8.944;2023-05-16T14:40:19;17.50;1.00
29353;DHT22;16344;50.364;8.944;2023-05-16T14:42:46;17.80;1.00
29353;DHT22;16344;50.364;8.944;2023-05-16T14:45:11;18.00;1.00
29353;DHT22;16344;50.364;8.944;2023-05-16T14:47:37;18.20;99.90
29353;DHT22;16344;50.364;8.944;2023-05-16T14:50:02;18.20;99.90
29353;DHT22;16344;50.364;8.944;2023-05-16T14:52:28;18.10;1.00
29353;DHT22;16344;50.364;8.944;2023-05-16T14:54:54;18.00;1.00
29353;DHT22;16344;50.364;8.944;2023-05-16T14:57:19;18.00;1.00
29353;DHT22;16344;50.364;8.944;2023-05-16T14:59:45;17.90;1.00
29353;DHT22;16344;50.364;8.944;2023-05-16T15:02:12;17.70;1.00
29353;DHT22;16344;50.364;8.944;2023-05-16T15:04:38;17.40;1.00
29353;DHT22;16344;50.364;8.944;2023-05-16T15:07:03;17.00;1.00
29353;DHT22;16344;50.364;8.944;2023-05-16T15:09:29;16.70;1.00
29353;DHT22;16344;50.364;8.944;2023-05-16T15:11:55;16.40;1.00
29353;DHT22;16344;50.364;8.944;2023-05-16T15:14:20;16.30;1.00
29353;DHT22;16344;50.364;8.944;2023-05-16T15:16:46;16.40;1.00
29353;DHT22;16344;50.364;8.944;2023-05-16T15:19:11;16.40;1.00
29353;DHT22;16344;50.364;8.944;2023-05-16T15:21:37;16.40;1.00
29353;DHT22;16344;50.364;8.944;2023-05-16T15:24:03;16.50;1.00
29353;DHT22;16344;50.364;8.944;2023-05-16T15:26:28;16.80;1.00
29353;DHT22;16344;50.364;8.944;2023-05-16T15:28:54;16.90;1.00
29353;DHT22;16344;50.364;8.944;2023-05-16T15:31:20;16.90;1.00
29353;DHT22;16344;50.364;8.944;2023-05-16T15:33:46;16.80;1.00
29353;DHT22;16344;50.364;8.944;2023-05-16T15:36:12;16.60;99.90
29353;DHT22;16344;50.364;8.944;2023-05-16T15:38:38;16.40;99.90
29353;DHT22;16344;50.364;8.944;2023-05-16T15:41:09;16.30;99.90
29353;DHT22;16344;50.364;8.944;2023-05-16T15:43:35;16.30;1.00
29353;DHT22;16344;50.364;8.944;2023-05-16T15:46:00;16.20;99.90
29353;DHT22;16344;50.364;8.944;2023-05-16T15:48:26;16.20;1.00
29353;DHT22;16344;50.364;8.944;2023-05-16T15:50:51;16.10;1.00
29353;DHT22;16344;50.364;8.944;2023-05-16T15:53:17;15.90;1.00
29353;DHT22;16344;50.364;8.944;2023-05-16T15:55:43;16.10;1.00
29353;DHT22;16344;50.364;8.944;2023-05-16T15:58:08;16.20;1.00
29353;DHT22;16344;50.364;8.944;2023-05-16T16:00:34;16.50;1.00
29353;DHT22;16344;50.364;8.944;2023-05-16T16:02:59;16.60;99.90
29353;DHT22;16344;50.364;8.944;2023-05-16T16:05:25;16.70;1.00
29353;DHT22;16344;50.364;8.944;2023-05-16T16:07:50;16.80;1.00
29353;DHT22;16344;50.364;8.944;2023-05-16T16:10:16;16.70;99.90
29353;DHT22;16344;50.364;8.944;2023-05-16T16:12:41;16.60;1.00